sensor_id;sensor_type;location;lat;lon;timestamp;P1;durP1;ratioP1;P2;durP2;ratioP2
14770;SDS011;7477;45.222;5.688;2023-10-13T00:01:05;6.40;;;3.13;;
14770;SDS011;7477;45.222;5.688;2023-10-13T00:04:25;5.97;;;2.80;;
14770;SDS011;7477;45.222;5.688;2023-10-13T00:07:45;7.43;;;3.70;;
14770;SDS011;7477;45.222;5.688;2023-10-13T00:11:05;6.18;;;3.13;;
14770;SDS011;7477;45.222;5.688;2023-10-13T00:14:28;6.47;;;2.97;;
14770;SDS011;7477;45.222;5.688;2023-10-13T00:17:52;4.13;;;2.72;;
14770;SDS011;7477;45.222;5.688;2023-10-13T00:21:11;7.70;;;3.13;;
14770;SDS011;7477;45.222;5.688;2023-10-13T00:24:31;4.60;;;2.88;;
14770;SDS011;7477;45.222;5.688;2023-10-13T00:27:58;6.38;;;2.97;;
14770;SDS011;7477;45.222;5.688;2023-10-13T00:31:20;5.50;;;2.85;;
14770;SDS011;7477;45.222;5.688;2023-10-13T00:34:40;5.63;;;3.15;;
14770;SDS011;7477;45.222;5.688;2023-10-13T00:37:59;3.88;;;2.88;;
14770;SDS011;7477;45.222;5.688;2023-10-13T00:41:22;9.07;;;2.90;;
14770;SDS011;7477;45.222;5.688;2023-10-13T00:45:02;2.85;;;2.58;;
14770;SDS011;7477;45.222;5.688;2023-10-13T00:48:27;7.43;;;2.80;;
14770;SDS011;7477;45.222;5.688;2023-10-13T00:51:51;4.72;;;2.60;;
14770;SDS011;7477;45.222;5.688;2023-10-13T00:55:10;4.95;;;2.22;;
14770;SDS011;7477;45.222;5.688;2023-10-13T00:58:32;4.72;;;2.65;;
14770;SDS011;7477;45.222;5.688;2023-10-13T01:01:52;3.92;;;2.78;;
14770;SDS011;7477;45.222;5.688;2023-10-13T01:05:14;8.52;;;2.67;;
14770;SDS011;7477;45.222;5.688;2023-10-13T01:08:38;4.10;;;2.88;;
14770;SDS011;7477;45.222;5.688;2023-10-13T01:11:57;5.60;;;2.85;;
14770;SDS011;7477;45.222;5.688;2023-10-13T01:15:19;5.40;;;3.53;;
14770;SDS011;7477;45.222;5.688;2023-10-13T01:18:48;6.43;;;3.03;;
14770;SDS011;7477;45.222;5.688;2023-10-13T01:22:07;6.22;;;3.38;;
14770;SDS011;7477;45.222;5.688;2023-10-13T01:25:27;5.78;;;3.30;;
14770;SDS011;7477;45.222;5.688;2023-10-13T01:28:46;6.93;;;3.63;;
14770;SDS011;7477;45.222;5.688;2023-10-13T01:32:07;9.35;;;3.40;;
14770;SDS011;7477;45.222;5.688;2023-10-13T01:35:31;5.88;;;2.80;;
14770;SDS011;7477;45.222;5.688;2023-10-13T01:39:01;8.13;;;2.70;;
14770;SDS011;7477;45.222;5.688;2023-10-13T01:42:21;5.13;;;3.08;;
14770;SDS011;7477;45.222;5.688;2023-10-13T01:45:40;9.88;;;3.00;;
14770;SDS011;7477;45.222;5.688;2023-10-13T01:49:08;3.58;;;2.58;;
14770;SDS011;7477;45.222;5.688;2023-10-13T01:52:27;5.30;;;2.67;;
14770;SDS011;7477;45.222;5.688;2023-10-13T01:55:48;4.57;;;3.15;;
14770;SDS011;7477;45.222;5.688;2023-10-13T01:59:09;4.93;;;3.08;;
14770;SDS011;7477;45.222;5.688;2023-10-13T02:02:32;5.68;;;2.80;;
14770;SDS011;7477;45.222;5.688;2023-10-13T02:05:51;4.22;;;3.17;;
14770;SDS011;7477;45.222;5.688;2023-10-13T02:09:16;6.00;;;3.08;;
14770;SDS011;7477;45.222;5.688;2023-10-13T02:12:44;3.28;;;2.80;;
14770;SDS011;7477;45.222;5.688;2023-10-13T02:16:03;5.60;;;2.90;;
14770;SDS011;7477;45.222;5.688;2023-10-13T02:19:23;6.40;;;3.03;;
14770;SDS011;7477;45.222;5.688;2023-10-13T02:22:46;5.85;;;3.03;;
14770;SDS011;7477;45.222;5.688;2023-10-13T02:26:08;5.93;;;3.08;;
14770;SDS011;7477;45.222;5.688;2023-10-13T02:29:31;3.22;;;2.55;;
14770;SDS011;7477;45.222;5.688;2023-10-13T02:32:58;4.22;;;2.70;;
14770;SDS011;7477;45.222;5.688;2023-10-13T02:36:24;6.10;;;3.00;;
14770;SDS011;7477;45.222;5.688;2023-10-13T02:39:54;7.03;;;2.65;;
14770;SDS011;7477;45.222;5.688;2023-10-13T02:43:16;4.45;;;2.80;;
14770;SDS011;7477;45.222;5.688;2023-10-13T02:46:36;4.72;;;2.63;;
14770;SDS011;7477;45.222;5.688;2023-10-13T02:49:58;3.28;;;2.55;;
14770;SDS011;7477;45.222;5.688;2023-10-13T02:53:19;3.55;;;2.78;;
14770;SDS011;7477;45.222;5.688;2023-10-13T02:56:39;5.35;;;3.05;;
14770;SDS011;7477;45.222;5.688;2023-10-13T03:00:16;8.38;;;3.08;;
14770;SDS011;7477;45.222;5.688;2023-10-13T03:03:35;7.32;;;3.00;;
14770;SDS011;7477;45.222;5.688;2023-10-13T03:06:55;4.68;;;2.92;;
14770;SDS011;7477;45.222;5.688;2023-10-13T03:10:18;4.82;;;3.20;;
14770;SDS011;7477;45.222;5.688;2023-10-13T03:13:38;5.60;;;3.10;;
14770;SDS011;7477;45.222;5.688;2023-10-13T03:17:02;6.05;;;2.90;;
14770;SDS011;7477;45.222;5.688;2023-10-13T03:20:27;5.68;;;3.40;;
14770;SDS011;7477;45.222;5.688;2023-10-13T03:23:50;5.60;;;3.40;;
14770;SDS011;7477;45.222;5.688;2023-10-13T03:27:13;7.57;;;3.70;;
14770;SDS011;7477;45.222;5.688;2023-10-13T03:30:40;9.77;;;3.42;;
14770;SDS011;7477;45.222;5.688;2023-10-13T03:34:03;7.72;;;3.65;;
14770;SDS011;7477;45.222;5.688;2023-10-13T03:37:24;6.85;;;3.75;;
14770;SDS011;7477;45.222;5.688;2023-10-13T03:40:59;6.60;;;3.10;;
14770;SDS011;7477;45.222;5.688;2023-10-13T03:44:37;7.40;;;2.88;;
14770;SDS011;7477;45.222;5.688;2023-10-13T03:47:57;6.20;;;3.28;;
14770;SDS011;7477;45.222;5.688;2023-10-13T03:51:17;7.45;;;3.40;;
14770;SDS011;7477;45.222;5.688;2023-10-13T03:54:36;4.90;;;3.05;;
14770;SDS011;7477;45.222;5.688;2023-10-13T03:57:59;3.63;;;2.95;;
14770;SDS011;7477;45.222;5.688;2023-10-13T04:01:21;6.10;;;2.58;;
14770;SDS011;7477;45.222;5.688;2023-10-13T04:04:52;5.40;;;2.95;;
14770;SDS011;7477;45.222;5.688;2023-10-13T04:08:14;5.05;;;2.60;;
14770;SDS011;7477;45.222;5.688;2023-10-13T04:11:48;6.35;;;2.88;;
14770;SDS011;7477;45.222;5.688;2023-10-13T04:15:30;4.53;;;2.67;;
14770;SDS011;7477;45.222;5.688;2023-10-13T04:19:00;6.90;;;2.97;;
14770;SDS011;7477;45.222;5.688;2023-10-13T04:22:20;3.42;;;2.67;;
14770;SDS011;7477;45.222;5.688;2023-10-13T04:25:41;4.00;;;2.90;;
14770;SDS011;7477;45.222;5.688;2023-10-13T04:29:00;2.78;;;2.28;;
14770;SDS011;7477;45.222;5.688;2023-10-13T04:32:29;4.20;;;2.47;;
14770;SDS011;7477;45.222;5.688;2023-10-13T04:35:49;4.55;;;2.70;;
14770;SDS011;7477;45.222;5.688;2023-10-13T04:39:17;7.50;;;3.25;;
14770;SDS011;7477;45.222;5.688;2023-10-13T04:42:47;7.00;;;3.25;;
14770;SDS011;7477;45.222;5.688;2023-10-13T04:46:15;5.50;;;2.95;;
14770;SDS011;7477;45.222;5.688;2023-10-13T04:49:54;9.20;;;3.00;;
14770;SDS011;7477;45.222;5.688;2023-10-13T04:53:19;4.35;;;2.85;;
14770;SDS011;7477;45.222;5.688;2023-10-13T04:56:56;4.95;;;2.75;;
14770;SDS011;7477;45.222;5.688;2023-10-13T05:00:37;6.15;;;2.92;;
14770;SDS011;7477;45.222;5.688;2023-10-13T05:04:35;4.40;;;3.17;;
14770;SDS011;7477;45.222;5.688;2023-10-13T05:08:16;10.68;;;3.28;;
14770;SDS011;7477;45.222;5.688;2023-10-13T05:11:54;5.95;;;3.42;;
14770;SDS011;7477;45.222;5.688;2023-10-13T05:15:32;6.05;;;2.72;;
14770;SDS011;7477;45.222;5.688;2023-10-13T05:19:10;3.85;;;2.70;;
14770;SDS011;7477;45.222;5.688;2023-10-13T05:22:48;7.00;;;2.92;;
14770;SDS011;7477;45.222;5.688;2023-10-13T05:26:26;6.72;;;2.65;;
14770;SDS011;7477;45.222;5.688;2023-10-13T05:30:05;4.97;;;2.50;;
14770;SDS011;7477;45.222;5.688;2023-10-13T05:33:44;3.13;;;2.50;;
14770;SDS011;7477;45.222;5.688;2023-10-13T05:37:22;6.80;;;2.70;;
14770;SDS011;7477;45.222;5.688;2023-10-13T05:41:01;6.20;;;3.33;;
14770;SDS011;7477;45.222;5.688;2023-10-13T05:44:40;4.95;;;2.78;;
14770;SDS011;7477;45.222;5.688;2023-10-13T05:48:14;6.03;;;2.90;;
14770;SDS011;7477;45.222;5.688;2023-10-13T05:51:43;5.60;;;2.35;;
14770;SDS011;7477;45.222;5.688;2023-10-13T05:55:16;6.22;;;2.60;;
14770;SDS011;7477;45.222;5.688;2023-10-13T05:58:54;7.70;;;2.92;;
14770;SDS011;7477;45.222;5.688;2023-10-13T06:02:32;5.07;;;2.50;;
14770;SDS011;7477;45.222;5.688;2023-10-13T06:06:10;3.97;;;2.28;;
14770;SDS011;7477;45.222;5.688;2023-10-13T06:09:48;3.67;;;2.38;;
14770;SDS011;7477;45.222;5.688;2023-10-13T06:13:26;3.90;;;2.75;;
14770;SDS011;7477;45.222;5.688;2023-10-13T06:17:04;5.70;;;2.85;;
14770;SDS011;7477;45.222;5.688;2023-10-13T06:20:42;7.60;;;2.60;;
14770;SDS011;7477;45.222;5.688;2023-10-13T06:24:20;6.60;;;2.78;;
14770;SDS011;7477;45.222;5.688;2023-10-13T06:27:58;4.03;;;3.22;;
14770;SDS011;7477;45.222;5.688;2023-10-13T06:31:36;4.28;;;2.83;;
14770;SDS011;7477;45.222;5.688;2023-10-13T06:34:56;3.92;;;2.88;;
14770;SDS011;7477;45.222;5.688;2023-10-13T06:38:16;3.85;;;2.50;;
14770;SDS011;7477;45.222;5.688;2023-10-13T06:41:39;6.55;;;2.90;;
14770;SDS011;7477;45.222;5.688;2023-10-13T06:44:59;7.32;;;2.45;;
14770;SDS011;7477;45.222;5.688;2023-10-13T06:48:27;3.30;;;2.92;;
14770;SDS011;7477;45.222;5.688;2023-10-13T06:51:51;5.25;;;2.67;;
14770;SDS011;7477;45.222;5.688;2023-10-13T06:55:11;3.38;;;2.72;;
14770;SDS011;7477;45.222;5.688;2023-10-13T06:58:36;4.95;;;2.85;;
14770;SDS011;7477;45.222;5.688;2023-10-13T07:01:58;7.53;;;3.17;;
14770;SDS011;7477;45.222;5.688;2023-10-13T07:05:24;7.03;;;2.90;;
14770;SDS011;7477;45.222;5.688;2023-10-13T07:08:43;3.95;;;2.72;;
14770;SDS011;7477;45.222;5.688;2023-10-13T07:12:10;6.53;;;3.03;;
14770;SDS011;7477;45.222;5.688;2023-10-13T07:15:35;4.55;;;2.97;;
14770;SDS011;7477;45.222;5.688;2023-10-13T07:19:03;9.20;;;3.08;;
14770;SDS011;7477;45.222;5.688;2023-10-13T07:22:24;6.65;;;3.17;;
14770;SDS011;7477;45.222;5.688;2023-10-13T07:25:53;8.23;;;3.33;;
14770;SDS011;7477;45.222;5.688;2023-10-13T07:29:14;8.30;;;2.80;;
14770;SDS011;7477;45.222;5.688;2023-10-13T07:32:33;6.22;;;3.22;;
14770;SDS011;7477;45.222;5.688;2023-10-13T07:36:00;4.35;;;2.88;;
14770;SDS011;7477;45.222;5.688;2023-10-13T07:39:30;5.40;;;3.03;;
14770;SDS011;7477;45.222;5.688;2023-10-13T07:42:53;6.47;;;3.25;;
14770;SDS011;7477;45.222;5.688;2023-10-13T07:46:27;3.53;;;3.03;;
14770;SDS011;7477;45.222;5.688;2023-10-13T07:49:50;4.13;;;3.03;;
14770;SDS011;7477;45.222;5.688;2023-10-13T07:53:09;8.95;;;3.30;;
14770;SDS011;7477;45.222;5.688;2023-10-13T07:56:37;4.82;;;2.90;;
14770;SDS011;7477;45.222;5.688;2023-10-13T07:59:57;3.30;;;2.55;;
14770;SDS011;7477;45.222;5.688;2023-10-13T08:03:45;6.60;;;2.97;;
14770;SDS011;7477;45.222;5.688;2023-10-13T08:07:05;5.57;;;2.90;;
14770;SDS011;7477;45.222;5.688;2023-10-13T08:10:36;4.32;;;2.25;;
14770;SDS011;7477;45.222;5.688;2023-10-13T08:13:56;5.95;;;2.78;;
14770;SDS011;7477;45.222;5.688;2023-10-13T08:17:35;4.65;;;2.95;;
14770;SDS011;7477;45.222;5.688;2023-10-13T08:20:54;4.95;;;2.90;;
14770;SDS011;7477;45.222;5.688;2023-10-13T08:24:13;10.57;;;2.97;;
14770;SDS011;7477;45.222;5.688;2023-10-13T08:27:34;7.13;;;2.42;;
14770;SDS011;7477;45.222;5.688;2023-10-13T08:30:55;4.63;;;3.25;;
14770;SDS011;7477;45.222;5.688;2023-10-13T08:34:15;5.68;;;2.90;;
14770;SDS011;7477;45.222;5.688;2023-10-13T08:37:42;5.80;;;2.47;;
14770;SDS011;7477;45.222;5.688;2023-10-13T08:41:10;12.68;;;2.60;;
14770;SDS011;7477;45.222;5.688;2023-10-13T08:44:36;4.65;;;2.28;;
14770;SDS011;7477;45.222;5.688;2023-10-13T08:47:57;5.93;;;2.97;;
14770;SDS011;7477;45.222;5.688;2023-10-13T08:51:33;4.40;;;2.65;;
14770;SDS011;7477;45.222;5.688;2023-10-13T08:55:16;6.25;;;2.92;;
14770;SDS011;7477;45.222;5.688;2023-10-13T08:58:55;5.18;;;2.72;;
14770;SDS011;7477;45.222;5.688;2023-10-13T09:02:14;10.98;;;3.33;;
14770;SDS011;7477;45.222;5.688;2023-10-13T09:05:42;4.80;;;2.65;;
14770;SDS011;7477;45.222;5.688;2023-10-13T09:09:19;7.75;;;3.13;;
14770;SDS011;7477;45.222;5.688;2023-10-13T09:12:54;6.97;;;3.03;;
14770;SDS011;7477;45.222;5.688;2023-10-13T09:16:19;11.07;;;4.32;;
14770;SDS011;7477;45.222;5.688;2023-10-13T09:20:05;5.85;;;2.75;;
14770;SDS011;7477;45.222;5.688;2023-10-13T09:23:45;6.43;;;3.03;;
14770;SDS011;7477;45.222;5.688;2023-10-13T09:27:07;6.15;;;3.13;;
14770;SDS011;7477;45.222;5.688;2023-10-13T09:30:31;5.80;;;3.08;;
14770;SDS011;7477;45.222;5.688;2023-10-13T09:33:51;5.10;;;3.08;;
14770;SDS011;7477;45.222;5.688;2023-10-13T09:37:14;12.07;;;3.58;;
14770;SDS011;7477;45.222;5.688;2023-10-13T09:40:39;4.05;;;2.85;;
14770;SDS011;7477;45.222;5.688;2023-10-13T09:44:05;7.28;;;3.10;;
14770;SDS011;7477;45.222;5.688;2023-10-13T09:47:27;4.55;;;3.10;;
14770;SDS011;7477;45.222;5.688;2023-10-13T09:50:55;6.28;;;2.78;;
14770;SDS011;7477;45.222;5.688;2023-10-13T09:54:24;5.50;;;3.22;;
14770;SDS011;7477;45.222;5.688;2023-10-13T09:57:54;8.38;;;3.00;;
14770;SDS011;7477;45.222;5.688;2023-10-13T10:01:19;9.98;;;3.55;;
14770;SDS011;7477;45.222;5.688;2023-10-13T10:04:56;6.97;;;3.20;;
14770;SDS011;7477;45.222;5.688;2023-10-13T10:08:39;10.45;;;3.90;;
14770;SDS011;7477;45.222;5.688;2023-10-13T10:12:19;9.43;;;3.53;;
14770;SDS011;7477;45.222;5.688;2023-10-13T10:15:51;4.50;;;3.25;;
14770;SDS011;7477;45.222;5.688;2023-10-13T10:19:15;6.70;;;3.67;;
14770;SDS011;7477;45.222;5.688;2023-10-13T10:22:37;12.30;;;3.88;;
14770;SDS011;7477;45.222;5.688;2023-10-13T10:25:56;4.82;;;3.42;;
14770;SDS011;7477;45.222;5.688;2023-10-13T10:29:27;7.40;;;3.85;;
14770;SDS011;7477;45.222;5.688;2023-10-13T10:32:46;7.95;;;3.92;;
14770;SDS011;7477;45.222;5.688;2023-10-13T10:36:30;9.27;;;4.78;;
14770;SDS011;7477;45.222;5.688;2023-10-13T10:39:50;6.43;;;3.90;;
14770;SDS011;7477;45.222;5.688;2023-10-13T10:43:15;6.40;;;4.30;;
14770;SDS011;7477;45.222;5.688;2023-10-13T10:46:36;7.38;;;4.00;;
14770;SDS011;7477;45.222;5.688;2023-10-13T10:50:10;6.38;;;4.50;;
14770;SDS011;7477;45.222;5.688;2023-10-13T10:53:38;8.32;;;5.00;;
14770;SDS011;7477;45.222;5.688;2023-10-13T10:57:03;8.20;;;5.32;;
14770;SDS011;7477;45.222;5.688;2023-10-13T11:00:36;9.05;;;4.57;;
14770;SDS011;7477;45.222;5.688;2023-10-13T11:04:09;6.45;;;5.07;;
14770;SDS011;7477;45.222;5.688;2023-10-13T11:07:37;6.65;;;5.00;;
14770;SDS011;7477;45.222;5.688;2023-10-13T11:11:09;10.15;;;4.68;;
14770;SDS011;7477;45.222;5.688;2023-10-13T11:14:36;7.35;;;5.57;;
14770;SDS011;7477;45.222;5.688;2023-10-13T11:17:57;7.72;;;5.00;;
14770;SDS011;7477;45.222;5.688;2023-10-13T11:21:17;5.57;;;5.00;;
14770;SDS011;7477;45.222;5.688;2023-10-13T11:24:42;8.60;;;5.40;;
14770;SDS011;7477;45.222;5.688;2023-10-13T11:28:11;7.07;;;4.90;;
14770;SDS011;7477;45.222;5.688;2023-10-13T11:31:47;9.90;;;4.57;;
14770;SDS011;7477;45.222;5.688;2023-10-13T11:35:17;5.78;;;4.53;;
14770;SDS011;7477;45.222;5.688;2023-10-13T11:38:39;5.75;;;4.20;;
14770;SDS011;7477;45.222;5.688;2023-10-13T11:41:59;6.57;;;4.32;;
14770;SDS011;7477;45.222;5.688;2023-10-13T11:45:18;5.80;;;3.90;;
14770;SDS011;7477;45.222;5.688;2023-10-13T11:48:55;5.80;;;4.35;;
14770;SDS011;7477;45.222;5.688;2023-10-13T11:52:14;6.78;;;4.15;;
14770;SDS011;7477;45.222;5.688;2023-10-13T11:55:36;8.40;;;4.53;;
14770;SDS011;7477;45.222;5.688;2023-10-13T11:58:56;6.00;;;4.25;;
14770;SDS011;7477;45.222;5.688;2023-10-13T12:02:20;6.45;;;4.30;;
14770;SDS011;7477;45.222;5.688;2023-10-13T12:05:45;8.77;;;4.70;;
14770;SDS011;7477;45.222;5.688;2023-10-13T12:09:23;8.30;;;4.95;;
14770;SDS011;7477;45.222;5.688;2023-10-13T12:12:42;7.95;;;4.68;;
14770;SDS011;7477;45.222;5.688;2023-10-13T12:16:03;5.90;;;4.20;;
14770;SDS011;7477;45.222;5.688;2023-10-13T12:19:27;5.68;;;4.30;;
14770;SDS011;7477;45.222;5.688;2023-10-13T12:22:47;6.07;;;4.93;;
14770;SDS011;7477;45.222;5.688;2023-10-13T12:26:16;10.38;;;4.00;;
14770;SDS011;7477;45.222;5.688;2023-10-13T12:29:38;5.50;;;4.47;;
14770;SDS011;7477;45.222;5.688;2023-10-13T12:33:04;6.30;;;4.55;;
14770;SDS011;7477;45.222;5.688;2023-10-13T12:36:30;6.03;;;5.05;;
14770;SDS011;7477;45.222;5.688;2023-10-13T12:39:56;7.97;;;4.90;;
14770;SDS011;7477;45.222;5.688;2023-10-13T12:43:35;6.80;;;4.28;;
14770;SDS011;7477;45.222;5.688;2023-10-13T12:47:12;7.03;;;4.45;;
14770;SDS011;7477;45.222;5.688;2023-10-13T12:50:51;9.50;;;5.15;;
14770;SDS011;7477;45.222;5.688;2023-10-13T12:54:26;6.25;;;4.63;;
14770;SDS011;7477;45.222;5.688;2023-10-13T12:57:53;6.00;;;4.38;;
14770;SDS011;7477;45.222;5.688;2023-10-13T13:01:12;7.45;;;4.43;;
14770;SDS011;7477;45.222;5.688;2023-10-13T13:04:32;6.65;;;4.93;;
14770;SDS011;7477;45.222;5.688;2023-10-13T13:07:55;11.27;;;5.32;;
14770;SDS011;7477;45.222;5.688;2023-10-13T13:11:15;8.23;;;5.53;;
14770;SDS011;7477;45.222;5.688;2023-10-13T13:14:35;6.85;;;4.82;;
14770;SDS011;7477;45.222;5.688;2023-10-13T13:17:54;14.07;;;5.60;;
14770;SDS011;7477;45.222;5.688;2023-10-13T13:21:13;12.15;;;5.20;;
14770;SDS011;7477;45.222;5.688;2023-10-13T13:24:40;5.85;;;5.25;;
14770;SDS011;7477;45.222;5.688;2023-10-13T13:28:03;7.53;;;4.45;;
14770;SDS011;7477;45.222;5.688;2023-10-13T13:31:27;9.55;;;5.13;;
14770;SDS011;7477;45.222;5.688;2023-10-13T13:34:48;7.57;;;5.57;;
14770;SDS011;7477;45.222;5.688;2023-10-13T13:38:22;6.55;;;5.28;;
14770;SDS011;7477;45.222;5.688;2023-10-13T13:41:46;7.97;;;5.22;;
14770;SDS011;7477;45.222;5.688;2023-10-13T13:45:15;7.10;;;4.75;;
14770;SDS011;7477;45.222;5.688;2023-10-13T13:48:45;9.43;;;5.28;;
14770;SDS011;7477;45.222;5.688;2023-10-13T13:52:08;6.55;;;4.88;;
14770;SDS011;7477;45.222;5.688;2023-10-13T13:55:28;6.90;;;5.10;;
14770;SDS011;7477;45.222;5.688;2023-10-13T13:58:53;5.97;;;5.38;;
14770;SDS011;7477;45.222;5.688;2023-10-13T14:02:14;6.97;;;5.03;;
14770;SDS011;7477;45.222;5.688;2023-10-13T14:05:42;5.78;;;5.15;;
14770;SDS011;7477;45.222;5.688;2023-10-13T14:09:02;6.28;;;4.95;;
14770;SDS011;7477;45.222;5.688;2023-10-13T14:12:22;6.88;;;4.80;;
14770;SDS011;7477;45.222;5.688;2023-10-13T14:15:48;7.22;;;4.97;;
14770;SDS011;7477;45.222;5.688;2023-10-13T14:19:07;7.05;;;5.05;;
14770;SDS011;7477;45.222;5.688;2023-10-13T14:22:26;6.15;;;4.95;;
14770;SDS011;7477;45.222;5.688;2023-10-13T14:25:46;7.68;;;4.85;;
14770;SDS011;7477;45.222;5.688;2023-10-13T14:29:05;6.15;;;5.05;;
14770;SDS011;7477;45.222;5.688;2023-10-13T14:32:27;5.00;;;4.53;;
14770;SDS011;7477;45.222;5.688;2023-10-13T14:35:47;7.40;;;5.60;;
14770;SDS011;7477;45.222;5.688;2023-10-13T14:39:06;5.30;;;4.78;;
14770;SDS011;7477;45.222;5.688;2023-10-13T14:42:28;5.55;;;4.85;;
14770;SDS011;7477;45.222;5.688;2023-10-13T14:45:54;5.50;;;4.50;;
14770;SDS011;7477;45.222;5.688;2023-10-13T14:49:13;5.22;;;4.70;;
14770;SDS011;7477;45.222;5.688;2023-10-13T14:52:37;8.23;;;4.90;;
14770;SDS011;7477;45.222;5.688;2023-10-13T14:56:00;8.02;;;4.90;;
14770;SDS011;7477;45.222;5.688;2023-10-13T14:59:20;6.13;;;4.82;;
14770;SDS011;7477;45.222;5.688;2023-10-13T15:02:40;4.97;;;4.43;;
14770;SDS011;7477;45.222;5.688;2023-10-13T15:06:03;5.60;;;4.72;;
14770;SDS011;7477;45.222;5.688;2023-10-13T15:09:22;5.47;;;4.75;;
14770;SDS011;7477;45.222;5.688;2023-10-13T15:12:44;5.97;;;4.47;;
14770;SDS011;7477;45.222;5.688;2023-10-13T15:16:12;5.88;;;4.75;;
14770;SDS011;7477;45.222;5.688;2023-10-13T15:19:41;5.32;;;4.22;;
14770;SDS011;7477;45.222;5.688;2023-10-13T15:23:01;5.78;;;4.47;;
14770;SDS011;7477;45.222;5.688;2023-10-13T15:26:20;5.32;;;3.92;;
14770;SDS011;7477;45.222;5.688;2023-10-13T15:29:42;5.70;;;4.20;;
14770;SDS011;7477;45.222;5.688;2023-10-13T15:33:09;4.78;;;3.33;;
14770;SDS011;7477;45.222;5.688;2023-10-13T15:36:32;5.70;;;4.13;;
14770;SDS011;7477;45.222;5.688;2023-10-13T15:39:52;6.22;;;3.75;;
14770;SDS011;7477;45.222;5.688;2023-10-13T15:43:12;4.32;;;3.90;;
14770;SDS011;7477;45.222;5.688;2023-10-13T15:46:31;4.70;;;4.30;;
14770;SDS011;7477;45.222;5.688;2023-10-13T15:49:54;3.90;;;3.53;;
14770;SDS011;7477;45.222;5.688;2023-10-13T15:53:14;4.90;;;4.05;;
14770;SDS011;7477;45.222;5.688;2023-10-13T15:56:33;4.63;;;3.85;;
14770;SDS011;7477;45.222;5.688;2023-10-13T15:59:55;5.20;;;3.97;;
14770;SDS011;7477;45.222;5.688;2023-10-13T16:03:15;4.70;;;3.72;;
14770;SDS011;7477;45.222;5.688;2023-10-13T16:06:42;3.92;;;3.47;;
14770;SDS011;7477;45.222;5.688;2023-10-13T16:10:06;5.60;;;4.30;;
14770;SDS011;7477;45.222;5.688;2023-10-13T16:13:30;5.38;;;3.45;;
14770;SDS011;7477;45.222;5.688;2023-10-13T16:16:50;4.72;;;3.92;;
14770;SDS011;7477;45.222;5.688;2023-10-13T16:20:11;7.50;;;4.22;;
14770;SDS011;7477;45.222;5.688;2023-10-13T16:23:36;3.72;;;3.28;;
14770;SDS011;7477;45.222;5.688;2023-10-13T16:26:57;4.40;;;3.60;;
14770;SDS011;7477;45.222;5.688;2023-10-13T16:30:17;4.10;;;3.70;;
14770;SDS011;7477;45.222;5.688;2023-10-13T16:33:38;6.97;;;3.30;;
14770;SDS011;7477;45.222;5.688;2023-10-13T16:37:00;6.35;;;4.18;;
14770;SDS011;7477;45.222;5.688;2023-10-13T16:40:24;4.55;;;3.80;;
14770;SDS011;7477;45.222;5.688;2023-10-13T16:43:43;3.63;;;3.33;;
14770;SDS011;7477;45.222;5.688;2023-10-13T16:47:03;15.88;;;4.30;;
14770;SDS011;7477;45.222;5.688;2023-10-13T16:50:22;5.35;;;3.85;;
14770;SDS011;7477;45.222;5.688;2023-10-13T16:53:42;5.07;;;3.63;;
14770;SDS011;7477;45.222;5.688;2023-10-13T16:57:05;4.85;;;3.72;;
14770;SDS011;7477;45.222;5.688;2023-10-13T17:00:25;4.45;;;3.80;;
14770;SDS011;7477;45.222;5.688;2023-10-13T17:03:45;4.35;;;3.88;;
14770;SDS011;7477;45.222;5.688;2023-10-13T17:07:05;5.03;;;3.45;;
14770;SDS011;7477;45.222;5.688;2023-10-13T17:10:25;10.95;;;3.85;;
14770;SDS011;7477;45.222;5.688;2023-10-13T17:13:47;5.10;;;4.03;;
14770;SDS011;7477;45.222;5.688;2023-10-13T17:17:09;6.60;;;3.80;;
14770;SDS011;7477;45.222;5.688;2023-10-13T17:20:29;8.85;;;4.20;;
14770;SDS011;7477;45.222;5.688;2023-10-13T17:23:55;7.90;;;3.17;;
14770;SDS011;7477;45.222;5.688;2023-10-13T17:27:15;5.28;;;3.25;;
14770;SDS011;7477;45.222;5.688;2023-10-13T17:30:35;6.97;;;3.47;;
14770;SDS011;7477;45.222;5.688;2023-10-13T17:33:54;10.27;;;3.42;;
14770;SDS011;7477;45.222;5.688;2023-10-13T17:37:17;5.85;;;2.63;;
14770;SDS011;7477;45.222;5.688;2023-10-13T17:40:36;10.75;;;5.57;;
14770;SDS011;7477;45.222;5.688;2023-10-13T17:43:57;6.57;;;3.15;;
14770;SDS011;7477;45.222;5.688;2023-10-13T17:47:19;4.93;;;3.15;;
14770;SDS011;7477;45.222;5.688;2023-10-13T17:50:39;5.15;;;3.50;;
14770;SDS011;7477;45.222;5.688;2023-10-13T17:53:58;3.75;;;3.03;;
14770;SDS011;7477;45.222;5.688;2023-10-13T17:57:17;5.85;;;3.13;;
14770;SDS011;7477;45.222;5.688;2023-10-13T18:00:37;3.83;;;2.80;;
14770;SDS011;7477;45.222;5.688;2023-10-13T18:03:57;3.78;;;2.90;;
14770;SDS011;7477;45.222;5.688;2023-10-13T18:07:23;5.13;;;3.50;;
14770;SDS011;7477;45.222;5.688;2023-10-13T18:10:51;6.22;;;2.92;;
14770;SDS011;7477;45.222;5.688;2023-10-13T18:14:11;7.72;;;4.05;;
14770;SDS011;7477;45.222;5.688;2023-10-13T18:17:31;6.28;;;3.45;;
14770;SDS011;7477;45.222;5.688;2023-10-13T18:21:00;4.97;;;3.28;;
14770;SDS011;7477;45.222;5.688;2023-10-13T18:24:20;7.47;;;3.28;;
14770;SDS011;7477;45.222;5.688;2023-10-13T18:27:44;4.93;;;3.03;;
14770;SDS011;7477;45.222;5.688;2023-10-13T18:31:03;12.98;;;4.50;;
14770;SDS011;7477;45.222;5.688;2023-10-13T18:34:23;6.72;;;3.33;;
14770;SDS011;7477;45.222;5.688;2023-10-13T18:37:42;4.95;;;3.10;;
14770;SDS011;7477;45.222;5.688;2023-10-13T18:41:01;5.40;;;3.35;;
14770;SDS011;7477;45.222;5.688;2023-10-13T18:44:20;5.50;;;3.10;;
14770;SDS011;7477;45.222;5.688;2023-10-13T18:47:41;6.20;;;3.17;;
14770;SDS011;7477;45.222;5.688;2023-10-13T18:51:06;5.78;;;4.10;;
14770;SDS011;7477;45.222;5.688;2023-10-13T18:54:26;5.43;;;3.88;;
14770;SDS011;7477;45.222;5.688;2023-10-13T18:57:45;4.60;;;3.38;;
14770;SDS011;7477;45.222;5.688;2023-10-13T19:01:12;5.70;;;3.38;;
14770;SDS011;7477;45.222;5.688;2023-10-13T19:04:34;8.70;;;3.28;;
14770;SDS011;7477;45.222;5.688;2023-10-13T19:07:54;6.97;;;3.50;;
14770;SDS011;7477;45.222;5.688;2023-10-13T19:11:13;11.40;;;4.43;;
14770;SDS011;7477;45.222;5.688;2023-10-13T19:14:32;9.23;;;4.05;;
14770;SDS011;7477;45.222;5.688;2023-10-13T19:17:51;7.35;;;4.85;;
14770;SDS011;7477;45.222;5.688;2023-10-13T19:21:10;8.55;;;3.97;;
14770;SDS011;7477;45.222;5.688;2023-10-13T19:24:38;7.85;;;3.72;;
14770;SDS011;7477;45.222;5.688;2023-10-13T19:27:57;4.93;;;4.28;;
14770;SDS011;7477;45.222;5.688;2023-10-13T19:31:17;7.07;;;4.30;;
14770;SDS011;7477;45.222;5.688;2023-10-13T19:34:37;7.82;;;4.30;;
14770;SDS011;7477;45.222;5.688;2023-10-13T19:38:00;8.70;;;4.63;;
14770;SDS011;7477;45.222;5.688;2023-10-13T19:44:43;9.65;;;5.10;;
14770;SDS011;7477;45.222;5.688;2023-10-13T19:48:05;23.25;;;5.10;;
14770;SDS011;7477;45.222;5.688;2023-10-13T19:51:29;11.23;;;5.78;;
14770;SDS011;7477;45.222;5.688;2023-10-13T19:54:49;13.15;;;5.30;;
14770;SDS011;7477;45.222;5.688;2023-10-13T19:58:10;7.43;;;5.05;;
14770;SDS011;7477;45.222;5.688;2023-10-13T20:01:33;12.18;;;4.60;;
14770;SDS011;7477;45.222;5.688;2023-10-13T20:04:53;9.15;;;4.53;;
14770;SDS011;7477;45.222;5.688;2023-10-13T20:08:13;11.80;;;4.80;;
14770;SDS011;7477;45.222;5.688;2023-10-13T20:11:32;8.68;;;5.35;;
14770;SDS011;7477;45.222;5.688;2023-10-13T20:14:54;9.00;;;5.10;;
14770;SDS011;7477;45.222;5.688;2023-10-13T20:18:13;9.85;;;4.93;;
14770;SDS011;7477;45.222;5.688;2023-10-13T20:21:36;7.63;;;4.53;;
14770;SDS011;7477;45.222;5.688;2023-10-13T20:24:55;8.25;;;4.45;;
14770;SDS011;7477;45.222;5.688;2023-10-13T20:28:14;7.57;;;4.47;;
14770;SDS011;7477;45.222;5.688;2023-10-13T20:31:35;7.43;;;4.28;;
14770;SDS011;7477;45.222;5.688;2023-10-13T20:34:55;10.45;;;4.75;;
14770;SDS011;7477;45.222;5.688;2023-10-13T20:38:14;7.82;;;4.25;;
14770;SDS011;7477;45.222;5.688;2023-10-13T20:41:36;6.85;;;4.60;;
14770;SDS011;7477;45.222;5.688;2023-10-13T20:44:56;7.50;;;4.82;;
14770;SDS011;7477;45.222;5.688;2023-10-13T20:48:16;7.93;;;5.30;;
14770;SDS011;7477;45.222;5.688;2023-10-13T20:51:36;5.35;;;4.18;;
14770;SDS011;7477;45.222;5.688;2023-10-13T20:55:00;6.57;;;4.45;;